createdAt,value
2022-11-13T02:34:30.556Z,102624.13
2022-11-13T02:37:00.573Z,102634.22
2022-11-13T02:39:30.612Z,102647.63
2022-11-13T02:42:00.666Z,102652.13
2022-11-13T02:44:30.739Z,102650.75
2022-11-13T02:47:00.775Z,102653.81
2022-11-13T02:49:33.388Z,102646.31
2022-11-13T02:52:03.428Z,102650.03
2022-11-13T02:54:33.439Z,102657.75
2022-11-13T02:57:03.487Z,102651.56
2022-11-13T02:59:33.477Z,102646.69
2022-11-13T03:02:03.537Z,102658.88
2022-11-13T03:05:05.139Z,102648.44
2022-11-13T03:07:26.360Z,102658.47
2022-11-13T03:09:57.060Z,102643.34
2022-11-13T03:12:27.160Z,102657.47
2022-11-13T03:14:57.167Z,102653.03
2022-11-13T03:17:27.212Z,102652.94
2022-11-13T03:19:59.815Z,102649.72
2022-11-13T03:22:30.052Z,102647.38
2022-11-13T03:25:00.361Z,102641.94
2022-11-13T03:27:30.415Z,102640.59
2022-11-13T03:30:00.431Z,102644.50
2022-11-13T03:32:30.515Z,102640.78
2022-11-13T03:35:03.135Z,102635.72
2022-11-13T03:37:33.157Z,102645.19
2022-11-13T03:40:03.161Z,102644.84
2022-11-13T03:42:33.210Z,102636.81
2022-11-13T03:45:03.199Z,102638.38
2022-11-13T03:47:33.236Z,102641.28
2022-11-13T03:50:05.850Z,102641.63
2022-11-13T03:52:35.905Z,102642.81
2022-11-13T03:55:05.970Z,102640.94
2022-11-13T03:57:36.047Z,102646.13
2022-11-13T04:00:06.738Z,102652.06
2022-11-13T04:02:36.793Z,102653.16
2022-11-13T04:05:11.612Z,102651.09
2022-11-13T04:07:41.657Z,102646.06
2022-11-13T04:10:12.172Z,102646.44
2022-11-13T04:12:42.208Z,102649.28
2022-11-13T04:15:13.320Z,102658.81
2022-11-13T04:17:43.506Z,102650.84
2022-11-13T04:20:16.293Z,102657.81
2022-11-13T04:22:46.503Z,102651.41
2022-11-13T04:25:16.512Z,102649.41
2022-11-13T04:27:46.564Z,102654.38
2022-11-13T04:30:16.790Z,102650.84
2022-11-13T04:32:46.877Z,102650.16
2022-11-13T04:35:19.605Z,102653.84
2022-11-13T04:37:49.644Z,102657.72
2022-11-13T04:40:20.357Z,102651.88
2022-11-13T04:42:50.355Z,102664.97
2022-11-13T04:45:21.505Z,102650.06
2022-11-13T04:47:52.184Z,102652.47
2022-11-13T04:50:24.885Z,102660.69
2022-11-13T04:52:54.956Z,102670.59
2022-11-13T04:55:24.955Z,102662.78
2022-11-13T04:57:57.130Z,102668.31
2022-11-13T05:00:27.181Z,102654.03
2022-11-13T05:02:59.413Z,102667.22
2022-11-13T05:05:32.211Z,102667.75
2022-11-13T05:08:02.246Z,102669.81
2022-11-13T05:10:32.321Z,102671.41
2022-11-13T05:13:02.566Z,102667.31
2022-11-13T05:15:32.537Z,102668.97
2022-11-13T05:18:02.563Z,102671.00
2022-11-13T05:20:35.242Z,102665.34
2022-11-13T05:23:05.299Z,102671.16
2022-11-13T05:25:35.349Z,102678.34
2022-11-13T05:28:05.392Z,102674.97
2022-11-13T05:30:35.436Z,102662.09
2022-11-13T05:33:05.562Z,102675.38
2022-11-13T05:35:38.250Z,102676.78
2022-11-13T05:38:08.373Z,102673.25
2022-11-13T05:40:38.375Z,102679.63
2022-11-13T05:43:08.423Z,102682.25
2022-11-13T05:45:38.429Z,102669.00
2022-11-13T05:48:09.008Z,102676.13
2022-11-13T05:50:41.622Z,102677.56
2022-11-13T05:53:11.689Z,102679.97
2022-11-13T05:55:41.715Z,102678.34
2022-11-13T05:58:11.999Z,102677.06
2022-11-13T06:00:42.097Z,102686.03
2022-11-13T06:03:12.135Z,102679.44
2022-11-13T06:05:44.761Z,102687.84
2022-11-13T06:08:14.816Z,102682.72
2022-11-13T06:10:45.066Z,102679.03
2022-11-13T06:13:15.128Z,102689.53
2022-11-13T06:15:45.249Z,102683.72
2022-11-13T06:18:15.364Z,102680.00
2022-11-13T06:20:47.985Z,102678.72
2022-11-13T06:23:18.042Z,102676.56
2022-11-13T06:25:48.141Z,102675.50
2022-11-13T06:28:18.181Z,102677.34
2022-11-13T06:30:48.192Z,102674.66
2022-11-13T06:33:18.245Z,102680.28
2022-11-13T06:35:50.907Z,102672.31
2022-11-13T06:38:20.959Z,102675.03
2022-11-13T06:40:50.977Z,102670.63
2022-11-13T06:43:21.045Z,102679.41
2022-11-13T06:45:51.068Z,102671.44
2022-11-13T06:48:21.081Z,102675.44
2022-11-13T06:50:54.179Z,102669.28
2022-11-13T06:53:24.203Z,102669.72
2022-11-13T06:55:54.370Z,102667.19
2022-11-13T06:58:24.424Z,102658.94
2022-11-13T07:00:54.621Z,102657.94
2022-11-13T07:03:27.390Z,102660.59
2022-11-13T07:06:00.005Z,102664.88
2022-11-13T07:08:30.360Z,102664.84
2022-11-13T07:11:01.281Z,102666.84
2022-11-13T07:13:31.840Z,102667.50
2022-11-13T07:16:15.863Z,102669.13
2022-11-13T07:18:47.580Z,102664.34
2022-11-13T07:21:20.430Z,102662.75
2022-11-13T07:23:51.585Z,102662.53
2022-11-13T07:26:22.027Z,102664.50
2022-11-13T07:28:52.985Z,102654.75
2022-11-13T07:31:23.026Z,102660.59
2022-11-13T07:33:54.151Z,102651.97
2022-11-13T07:36:26.821Z,102654.22
2022-11-13T07:39:00.198Z,102657.13
2022-11-13T07:41:30.544Z,102662.09
2022-11-13T07:44:01.896Z,102657.13
2022-11-13T07:46:32.609Z,102648.81
2022-11-13T07:49:02.634Z,102648.25
2022-11-13T07:51:35.269Z,102643.97
2022-11-13T07:54:05.301Z,102636.91
2022-11-13T07:56:35.337Z,102639.59
2022-11-13T07:59:05.359Z,102639.16
2022-11-13T08:01:35.464Z,102641.63
2022-11-13T08:04:05.521Z,102637.53
2022-11-13T08:06:39.859Z,102633.38
2022-11-13T08:09:09.928Z,102639.97
2022-11-13T08:11:39.959Z,102639.78
2022-11-13T08:14:10.012Z,102637.81
2022-11-13T08:16:40.080Z,102640.19
2022-11-13T08:19:10.148Z,102635.38
2022-11-13T08:21:42.784Z,102638.25
2022-11-13T08:24:13.141Z,102631.00
2022-11-13T08:26:43.384Z,102633.72
2022-11-13T08:29:13.401Z,102632.78
2022-11-13T08:31:43.376Z,102624.84
2022-11-13T08:34:13.429Z,102625.94
2022-11-13T08:36:46.065Z,102627.66
2022-11-13T08:39:16.368Z,102625.78
2022-11-13T08:41:46.373Z,102625.91
2022-11-13T08:44:16.501Z,102621.13
2022-11-13T08:46:46.551Z,102628.28
2022-11-13T08:49:16.612Z,102627.75
2022-11-13T08:51:49.255Z,102622.22
2022-11-13T08:54:21.003Z,102622.47
2022-11-13T08:56:56.002Z,102622.72
2022-11-13T08:59:27.417Z,102627.63
2022-11-13T09:01:59.630Z,102615.28
2022-11-13T09:04:29.892Z,102625.78
2022-11-13T09:07:02.611Z,102620.66
2022-11-13T09:09:34.621Z,102624.16
2022-11-13T09:12:04.636Z,102613.31
2022-11-13T09:14:34.718Z,102606.56
2022-11-13T09:17:04.715Z,102609.44
2022-11-13T09:19:34.720Z,102614.34
2022-11-13T09:22:07.419Z,102610.81
2022-11-13T09:24:37.462Z,102596.56
2022-11-13T09:27:07.535Z,102596.63
2022-11-13T09:29:37.559Z,102602.19
2022-11-13T09:32:08.084Z,102598.13
2022-11-13T09:34:38.373Z,102595.94
2022-11-13T09:37:10.986Z,102593.44
2022-11-13T09:39:41.037Z,102595.25
2022-11-13T09:42:17.573Z,102586.50
2022-11-13T09:44:51.956Z,102582.31
2022-11-13T09:47:26.344Z,102582.47
2022-11-13T09:50:01.499Z,102572.56
2022-11-13T09:52:38.333Z,102570.50
2022-11-13T09:55:09.469Z,102570.41
2022-11-13T09:57:47.281Z,102570.72
2022-11-13T10:00:21.444Z,102564.56
2022-11-13T10:03:04.229Z,102561.69
2022-11-13T10:05:43.034Z,102558.91
2022-11-13T10:08:19.985Z,102554.38
2022-11-13T10:10:58.921Z,102556.66
2022-11-13T10:13:32.046Z,102548.59
2022-11-13T10:16:07.252Z,102549.69
2022-11-13T10:18:41.000Z,102547.94
2022-11-13T10:21:20.728Z,102545.69
2022-11-13T10:23:59.072Z,102549.94
2022-11-13T10:26:31.672Z,102547.47
2022-11-13T10:29:05.783Z,102543.28
2022-11-13T10:31:47.445Z,102539.06
2022-11-13T10:34:18.542Z,102542.59
2022-11-13T10:37:03.338Z,102541.09
2022-11-13T10:39:44.826Z,102531.22
2022-11-13T10:42:25.559Z,102531.22
2022-11-13T10:44:57.940Z,102533.59
2022-11-13T10:48:02.388Z,102522.06
2022-11-13T10:50:25.171Z,102521.50
2022-11-13T10:52:57.980Z,102520.22
2022-11-13T10:55:41.022Z,102510.75
2022-11-13T10:58:16.857Z,102509.78
2022-11-13T11:00:49.993Z,102503.59
2022-11-13T11:03:23.044Z,102497.25
2022-11-13T11:05:57.853Z,102499.66
2022-11-13T11:08:32.890Z,102489.94
2022-11-13T11:11:22.821Z,102487.25
2022-11-13T11:13:52.857Z,102482.19
2022-11-13T11:16:27.098Z,102484.16
2022-11-13T11:19:00.925Z,102495.22
2022-11-13T11:21:37.409Z,102488.16
2022-11-13T11:24:14.840Z,102489.00
2022-11-13T11:26:53.944Z,102481.03
2022-11-13T11:29:31.408Z,102482.44
2022-11-13T11:32:06.619Z,102479.84
2022-11-13T11:34:42.141Z,102481.19
2022-11-13T11:37:17.344Z,102478.56
2022-11-13T11:39:53.268Z,102486.31
2022-11-13T11:42:33.801Z,102483.78
2022-11-13T11:45:14.957Z,102485.56
2022-11-13T11:47:45.035Z,102484.00
2022-11-13T11:50:17.920Z,102484.19
2022-11-13T11:53:02.943Z,102480.59
2022-11-13T11:55:49.346Z,102484.22
2022-11-13T11:58:34.188Z,102479.63
2022-11-13T12:01:08.608Z,102477.94
2022-11-13T12:04:09.327Z,102470.34
2022-11-13T12:06:51.707Z,102467.44
2022-11-13T12:09:30.776Z,102462.91
2022-11-13T12:12:16.108Z,102470.34
2022-11-13T12:15:01.314Z,102465.13
2022-11-13T12:17:51.738Z,102470.03
2022-11-13T12:20:30.542Z,102463.50
2022-11-13T12:23:11.220Z,102466.19
2022-11-13T12:25:47.789Z,102466.84
2022-11-13T12:28:23.904Z,102455.88
2022-11-13T12:31:10.134Z,102468.16
2022-11-13T12:33:48.507Z,102467.06
2022-11-13T12:36:19.322Z,102464.28
2022-11-13T12:38:57.308Z,102463.78
2022-11-13T12:41:45.973Z,102476.63
2022-11-13T12:44:26.009Z,102477.09
2022-11-13T12:47:00.496Z,102473.13
2022-11-13T12:49:33.831Z,102462.50
2022-11-13T12:52:05.836Z,102469.13
2022-11-13T12:54:37.684Z,102468.34
2022-11-13T12:57:24.434Z,102463.03
2022-11-13T12:59:57.575Z,102460.94
2022-11-13T13:02:43.589Z,102464.28
2022-11-13T13:05:24.488Z,102469.19
2022-11-13T13:08:24.317Z,102469.00
2022-11-13T13:11:07.357Z,102464.72
2022-11-13T13:13:43.899Z,102462.97
2022-11-13T13:16:15.612Z,102460.09
2022-11-13T13:18:48.280Z,102465.91
2022-11-13T13:21:20.717Z,102464.66
2022-11-13T13:23:52.125Z,102464.78
2022-11-13T13:26:25.480Z,102458.97
2022-11-13T13:28:58.235Z,102458.97
2022-11-13T13:31:41.948Z,102456.63
2022-11-13T13:34:33.701Z,102460.97
2022-11-13T13:37:13.879Z,102462.03
2022-11-13T13:39:54.437Z,102459.41
2022-11-13T13:42:40.294Z,102458.19
2022-11-13T13:45:25.745Z,102459.84
2022-11-13T13:47:59.625Z,102463.56
2022-11-13T13:50:37.188Z,102458.94
2022-11-13T13:53:07.342Z,102457.72
2022-11-13T13:55:39.721Z,102460.81
2022-11-13T13:58:14.728Z,102451.91
2022-11-13T14:01:11.954Z,102455.28
2022-11-13T14:03:35.052Z,102452.19
2022-11-13T14:06:25.861Z,102455.13
2022-11-13T14:08:55.934Z,102453.34
2022-11-13T14:11:29.901Z,102453.91
2022-11-13T14:14:10.845Z,102448.38
2022-11-13T14:16:50.533Z,102442.66
2022-11-13T14:19:21.357Z,102435.78
2022-11-13T14:21:56.608Z,102438.19
2022-11-13T14:24:29.676Z,102432.31
2022-11-13T14:27:00.738Z,102434.00
2022-11-13T14:29:38.068Z,102428.63
2022-11-13T14:32:12.914Z,102431.34
2022-11-13T14:34:47.233Z,102426.94
2022-11-13T14:37:32.345Z,102430.53
2022-11-13T14:40:05.150Z,102436.88
2022-11-13T14:42:39.598Z,102421.97
2022-11-13T14:45:18.067Z,102427.97
2022-11-13T14:47:59.817Z,102426.41
2022-11-13T14:50:32.204Z,102420.25
2022-11-13T14:53:06.961Z,102417.38
2022-11-13T14:55:40.290Z,102414.22
2022-11-13T14:58:14.820Z,102418.03
2022-11-13T15:00:44.942Z,102420.06
2022-11-13T15:03:15.041Z,102411.09
2022-11-13T15:05:45.394Z,102409.97
2022-11-13T15:08:18.194Z,102414.47
2022-11-13T15:10:48.309Z,102416.91
2022-11-13T15:13:20.193Z,102407.88
2022-11-13T15:15:50.247Z,102415.06
2022-11-13T15:18:22.277Z,102410.88
2022-11-13T15:20:52.362Z,102412.59
2022-11-13T15:23:29.577Z,102420.25
2022-11-13T15:25:59.868Z,102420.19
2022-11-13T15:28:29.859Z,102418.50
2022-11-13T15:31:00.022Z,102413.81
2022-11-13T15:33:30.663Z,102417.47
2022-11-13T15:36:00.983Z,102420.41
2022-11-13T15:38:33.598Z,102416.88
2022-11-13T15:41:03.814Z,102413.00
2022-11-13T15:43:33.894Z,102414.88
2022-11-13T15:46:04.138Z,102406.84
2022-11-13T15:48:34.186Z,102414.22
2022-11-13T15:51:04.220Z,102421.22
2022-11-13T15:53:36.932Z,102409.88
2022-11-13T15:56:07.912Z,102415.56
2022-11-13T15:58:37.949Z,102417.19
2022-11-13T16:01:09.490Z,102419.47
2022-11-13T16:03:40.668Z,102417.66
2022-11-13T16:06:14.640Z,102419.56
2022-11-13T16:08:47.357Z,102419.97
2022-11-13T16:11:18.495Z,102421.81
2022-11-13T16:13:49.117Z,102414.75
2022-11-13T16:16:23.477Z,102413.22
2022-11-13T16:18:58.932Z,102417.13
2022-11-13T16:21:30.777Z,102425.31
2022-11-13T16:24:03.431Z,102425.56
2022-11-13T16:26:33.676Z,102423.47
2022-11-13T16:29:13.564Z,102418.47
2022-11-13T16:31:44.329Z,102426.16
2022-11-13T16:34:14.600Z,102424.28
2022-11-13T16:36:44.837Z,102420.25
2022-11-13T16:39:19.490Z,102421.09
2022-11-13T16:41:49.482Z,102428.75
2022-11-13T16:44:19.536Z,102423.59
2022-11-13T16:46:49.905Z,102428.09
2022-11-13T16:49:20.525Z,102419.47
2022-11-13T16:51:51.801Z,102426.16
2022-11-13T16:54:24.448Z,102422.00
2022-11-13T16:56:54.437Z,102427.31
2022-11-13T16:59:24.604Z,102423.09
2022-11-13T17:01:57.563Z,102412.94
2022-11-13T17:04:27.661Z,102422.75
2022-11-13T17:06:58.046Z,102419.03
2022-11-13T17:09:30.806Z,102423.09
2022-11-13T17:12:00.872Z,102419.19
2022-11-13T17:14:30.943Z,102417.44
2022-11-13T17:17:00.984Z,102413.97
2022-11-13T17:19:32.969Z,102407.72
2022-11-13T17:22:03.225Z,102413.72
2022-11-13T17:24:36.121Z,102409.59
2022-11-13T17:27:06.450Z,102410.59
2022-11-13T17:29:36.693Z,102400.09
2022-11-13T17:32:06.944Z,102410.84
2022-11-13T17:34:36.990Z,102401.97
2022-11-13T17:37:07.082Z,102406.28
2022-11-13T17:39:39.688Z,102406.53
2022-11-13T17:42:09.739Z,102399.44
2022-11-13T17:44:39.759Z,102400.16
2022-11-13T17:47:09.806Z,102402.75
2022-11-13T17:49:39.824Z,102398.44
2022-11-13T17:52:09.872Z,102398.34
2022-11-13T17:54:42.551Z,102391.69
2022-11-13T17:57:13.169Z,102398.69
2022-11-13T17:59:43.243Z,102396.91
2022-11-13T18:02:14.809Z,102397.78
2022-11-13T18:04:44.861Z,102398.69
2022-11-13T18:07:14.956Z,102402.22
2022-11-13T18:09:47.626Z,102405.59
2022-11-13T18:12:17.659Z,102405.41
2022-11-13T18:14:52.618Z,102396.50
2022-11-13T18:17:22.949Z,102398.81
2022-11-13T18:20:01.320Z,102398.19
2022-11-13T18:22:32.214Z,102394.34
2022-11-13T18:25:05.429Z,102392.47
2022-11-13T18:27:35.468Z,102391.81
2022-11-13T18:30:05.484Z,102396.66
2022-11-13T18:32:35.537Z,102400.63
2022-11-13T18:35:05.673Z,102400.97
2022-11-13T18:37:35.784Z,102397.56
2022-11-13T18:40:09.882Z,102398.78
2022-11-13T18:42:39.957Z,102390.06
2022-11-13T18:45:11.922Z,102397.09
2022-11-13T18:47:41.925Z,102396.53
2022-11-13T18:50:12.869Z,102396.59
2022-11-13T18:52:42.890Z,102396.50
2022-11-13T18:55:15.585Z,102388.97
2022-11-13T18:57:45.622Z,102396.38
2022-11-13T19:00:16.836Z,102392.22
2022-11-13T19:02:46.863Z,102390.41
2022-11-13T19:05:17.045Z,102393.50
2022-11-13T19:07:47.103Z,102397.81
2022-11-13T19:10:20.019Z,102396.91
2022-11-13T19:12:50.049Z,102394.50
2022-11-13T19:15:20.303Z,102391.13
2022-11-13T19:17:52.818Z,102396.91
2022-11-13T19:20:23.063Z,102396.66
2022-11-13T19:22:53.122Z,102395.91
2022-11-13T19:25:25.978Z,102395.81
2022-11-13T19:27:56.756Z,102398.13
2022-11-13T19:30:27.451Z,102395.13
2022-11-13T19:32:57.489Z,102393.53
2022-11-13T19:35:29.014Z,102399.41
2022-11-13T19:38:02.085Z,102393.66
2022-11-13T19:40:34.695Z,102392.97
2022-11-13T19:43:04.738Z,102381.13
2022-11-13T19:45:34.792Z,102390.06
2022-11-13T19:48:04.834Z,102396.16
2022-11-13T19:50:35.034Z,102391.59
2022-11-13T19:53:05.116Z,102394.81
2022-11-13T19:55:37.720Z,102387.16
2022-11-13T19:58:07.793Z,102382.22
2022-11-13T20:00:38.757Z,102387.66
2022-11-13T20:03:08.769Z,102382.16
2022-11-13T20:05:43.182Z,102378.53
2022-11-13T20:08:14.003Z,102372.94
2022-11-13T20:10:46.629Z,102370.75
2022-11-13T20:13:16.720Z,102377.25
2022-11-13T20:15:46.774Z,102370.00
2022-11-13T20:18:17.241Z,102361.00
2022-11-13T20:20:53.449Z,102360.78
2022-11-13T20:23:24.979Z,102362.41
2022-11-13T20:25:59.833Z,102363.47
2022-11-13T20:28:31.197Z,102359.78
2022-11-13T20:31:10.095Z,102363.69
2022-11-13T20:33:40.155Z,102353.34
2022-11-13T20:36:11.108Z,102354.19
2022-11-13T20:38:41.332Z,102356.97
2022-11-13T20:41:15.496Z,102362.72
2022-11-13T20:43:45.556Z,102353.94
2022-11-13T20:46:17.217Z,102357.00
2022-11-13T20:48:47.883Z,102352.22
2022-11-13T20:51:20.093Z,102350.09
2022-11-13T20:53:50.580Z,102351.47
2022-11-13T20:56:25.074Z,102348.03
2022-11-13T20:58:55.352Z,102343.34
2022-11-13T21:01:27.389Z,102344.97
2022-11-13T21:03:59.676Z,102344.06
2022-11-13T21:06:29.920Z,102345.44
2022-11-13T21:08:59.941Z,102349.78
2022-11-13T21:11:32.549Z,102353.13
2022-11-13T21:14:02.817Z,102353.38
2022-11-13T21:16:33.180Z,102351.63
2022-11-13T21:19:03.234Z,102342.59
2022-11-13T21:21:33.221Z,102342.69
2022-11-13T21:24:03.300Z,102348.19
2022-11-13T21:26:35.962Z,102343.81
2022-11-13T21:29:06.074Z,102350.22
2022-11-13T21:31:36.130Z,102339.53
2022-11-13T21:34:06.221Z,102345.66
2022-11-13T21:36:36.252Z,102338.31
2022-11-13T21:39:06.384Z,102338.53
2022-11-13T21:41:39.043Z,102336.19
2022-11-13T21:44:11.190Z,102337.13
2022-11-13T21:46:45.851Z,102326.06
2022-11-13T21:49:16.925Z,102326.50
2022-11-13T21:51:46.984Z,102335.59
2022-11-13T21:54:17.256Z,102331.38
2022-11-13T21:56:49.872Z,102335.69
2022-11-13T21:59:19.882Z,102336.16
2022-11-13T22:01:50.042Z,102340.31
2022-11-13T22:04:20.090Z,102336.69
2022-11-13T22:06:50.989Z,102332.72
2022-11-13T22:09:23.034Z,102328.44
2022-11-13T22:11:55.847Z,102331.53
2022-11-13T22:14:25.863Z,102330.41
2022-11-13T22:16:56.278Z,102327.81
2022-11-13T22:19:29.248Z,102323.38
2022-11-13T22:22:01.189Z,102311.94
2022-11-13T22:24:31.207Z,102322.03
2022-11-13T22:27:03.988Z,102317.16
2022-11-13T22:29:33.986Z,102314.28
2022-11-13T22:32:04.389Z,102318.81
2022-11-13T22:34:34.379Z,102311.03
2022-11-13T22:37:04.433Z,102310.47
2022-11-13T22:39:34.498Z,102304.34
2022-11-13T22:42:07.438Z,102304.28
2022-11-13T22:44:54.863Z,102306.16
2022-11-13T22:47:25.232Z,102303.94
2022-11-13T22:49:55.201Z,102302.25
2022-11-13T22:52:25.232Z,102297.84
2022-11-13T22:54:55.535Z,102301.81
2022-11-13T22:57:28.160Z,102298.38
2022-11-13T22:59:58.149Z,102306.66
2022-11-13T23:02:28.169Z,102305.22
2022-11-13T23:04:58.189Z,102301.66
2022-11-13T23:07:28.333Z,102294.31
2022-11-13T23:09:58.392Z,102295.84
2022-11-13T23:12:31.845Z,102284.69
2022-11-13T23:15:01.918Z,102290.38
2022-11-13T23:17:31.949Z,102298.91
2022-11-13T23:20:02.009Z,102295.00
2022-11-13T23:22:32.021Z,102293.38
2022-11-13T23:25:02.080Z,102294.63
2022-11-13T23:27:34.685Z,102293.38
2022-11-13T23:30:05.049Z,102293.56
2022-11-13T23:32:35.037Z,102297.81
2022-11-13T23:35:05.032Z,102294.00
2022-11-13T23:37:35.092Z,102295.97
2022-11-13T23:40:05.105Z,102295.03
2022-11-13T23:42:54.220Z,102286.69
2022-11-13T23:45:25.528Z,102289.44
2022-11-13T23:47:55.509Z,102284.41
2022-11-13T23:50:25.701Z,102284.09
2022-11-13T23:52:55.749Z,102289.88
2022-11-13T23:55:26.413Z,102291.81
2022-11-13T23:58:03.899Z,102294.44
